Time;durP1;ratioP1;P1;durP2;ratioP2;P2;SDS_P1;SDS_P2;PMS_P1;PMS_P2;Temp;Humidity;BMP_temperature;BMP_pressure;BME280_temperature;BME280_humidity;BME280_pressure;Samples;Min_cycle;Max_cycle;Signal;HPM_P1;HPM_P2
2022/07/13 00:01:13;;;;;;;11.57;6.50;;;22.30;99.90;;;;;;4972822;28;20063;-67
2022/07/13 00:03:39;;;;;;;9.85;6.03;;;22.40;99.90;;;;;;4975570;28;20026;-67
2022/07/13 00:06:04;;;;;;;11.23;5.97;;;22.40;99.90;;;;;;4976406;28;20022;-69
2022/07/13 00:08:30;;;;;;;11.60;6.53;;;22.40;99.90;;;;;;4976787;28;20491;-67
2022/07/13 00:10:56;;;;;;;11.70;6.75;;;22.40;99.90;;;;;;4976883;28;20118;-67
2022/07/13 00:13:22;;;;;;;11.55;6.25;;;22.50;99.90;;;;;;4976837;28;20058;-67
2022/07/13 00:15:48;;;;;;;10.18;6.65;;;22.50;99.90;;;;;;4977000;28;20027;-68
2022/07/13 00:18:14;;;;;;;14.00;6.50;;;22.50;99.90;;;;;;4976910;28;20018;-68
2022/07/13 00:20:39;;;;;;;9.60;5.70;;;22.50;99.90;;;;;;4976133;28;20035;-67
2022/07/13 00:23:05;;;;;;;14.18;6.10;;;22.50;99.90;;;;;;4976703;28;20022;-69
2022/07/13 00:25:31;;;;;;;8.82;5.80;;;22.50;99.90;;;;;;4976495;28;20027;-70
2022/07/13 00:27:56;;;;;;;12.15;5.80;;;22.50;99.90;;;;;;4976956;28;20449;-70
2022/07/13 00:30:22;;;;;;;13.68;6.43;;;22.50;99.90;;;;;;4976238;28;20387;-68
2022/07/13 00:32:47;;;;;;;13.40;6.38;;;22.60;99.90;;;;;;4976468;28;20034;-67
2022/07/13 00:35:13;;;;;;;11.02;5.82;;;22.60;99.90;;;;;;4975894;28;20022;-67
2022/07/13 00:37:39;;;;;;;11.05;5.80;;;22.60;99.90;;;;;;4975215;28;20119;-67
2022/07/13 00:40:05;;;;;;;10.00;5.25;;;22.60;99.90;;;;;;4976374;28;20039;-68
2022/07/13 00:42:30;;;;;;;12.00;5.80;;;22.60;99.90;;;;;;4976096;28;20081;-68
2022/07/13 00:44:56;;;;;;;10.93;6.10;;;22.60;99.90;;;;;;4976433;28;20137;-69
2022/07/13 00:47:22;;;;;;;7.93;4.85;;;22.60;99.90;;;;;;4976449;28;20031;-67
2022/07/13 00:49:48;;;;;;;8.60;5.05;;;22.60;99.90;;;;;;4975686;28;20034;-67
2022/07/13 00:52:15;;;;;;;9.35;5.03;;;22.60;99.90;;;;;;4976435;28;20034;-67
2022/07/13 00:54:43;;;;;;;10.52;4.40;;;22.60;99.90;;;;;;4976197;28;20077;-66
2022/07/13 00:57:12;;;;;;;10.13;5.53;;;22.70;99.90;;;;;;4976351;28;20480;-67
2022/07/13 00:59:38;;;;;;;9.75;4.97;;;22.70;99.90;;;;;;4976151;28;20027;-68
2022/07/13 01:02:04;;;;;;;10.55;4.57;;;22.70;99.90;;;;;;4976441;28;20502;-69
2022/07/13 01:04:29;;;;;;;8.30;5.25;;;22.70;99.90;;;;;;4976434;28;20030;-66
2022/07/13 01:06:55;;;;;;;10.32;5.95;;;22.70;99.90;;;;;;4978738;28;20037;-67
2022/07/13 01:09:22;;;;;;;9.13;5.72;;;22.70;99.90;;;;;;4976995;28;20030;-67
2022/07/13 01:11:48;;;;;;;11.63;5.47;;;22.70;99.90;;;;;;4976159;28;20023;-69
2022/07/13 01:14:15;;;;;;;7.18;4.68;;;22.70;99.90;;;;;;4975313;28;20385;-67
2022/07/13 01:16:41;;;;;;;10.48;4.90;;;22.70;99.90;;;;;;4975876;28;20023;-68
2022/07/13 01:19:11;;;;;;;9.15;5.25;;;22.70;99.90;;;;;;4975495;28;20030;-69
2022/07/13 01:21:41;;;;;;;9.88;5.70;;;22.70;99.90;;;;;;4975553;28;20428;-69
2022/07/13 01:24:07;;;;;;;8.52;5.18;;;22.70;99.90;;;;;;4975680;28;20048;-68
2022/07/13 01:26:33;;;;;;;8.07;5.07;;;22.60;99.90;;;;;;4975328;28;20031;-67
2022/07/13 01:28:59;;;;;;;8.38;5.25;;;22.60;99.90;;;;;;4974238;28;20126;-67
2022/07/13 01:31:38;;;;;;;10.35;5.70;;;22.60;99.90;;;;;;4974712;28;20023;-68
2022/07/13 01:34:05;;;;;;;9.75;5.53;;;22.60;99.90;;;;;;4975646;28;20051;-70
2022/07/13 01:36:31;;;;;;;10.40;5.70;;;22.60;99.90;;;;;;4975541;28;20027;-69
2022/07/13 01:38:58;;;;;;;9.23;5.45;;;22.60;99.90;;;;;;4975491;28;20023;-68
2022/07/13 01:41:26;;;;;;;13.15;6.00;;;22.60;99.90;;;;;;4975358;28;20341;-69
2022/07/13 01:43:51;;;;;;;7.70;5.38;;;22.70;99.90;;;;;;4974876;28;20392;-68
2022/07/13 01:46:17;;;;;;;9.07;5.47;;;22.70;99.90;;;;;;4975325;28;20054;-69
2022/07/13 01:48:42;;;;;;;10.27;5.47;;;22.70;99.90;;;;;;4974790;28;20030;-67
2022/07/13 01:51:08;;;;;;;11.15;6.15;;;22.60;99.90;;;;;;4975134;28;20023;-68
2022/07/13 01:53:34;;;;;;;9.70;5.50;;;22.60;99.90;;;;;;4974862;28;20748;-67
2022/07/13 01:55:59;;;;;;;9.32;5.72;;;22.50;99.90;;;;;;4974712;28;20543;-67
2022/07/13 01:58:26;;;;;;;10.23;5.55;;;22.50;99.90;;;;;;4974377;28;20078;-69
2022/07/13 02:00:52;;;;;;;11.68;6.07;;;22.40;99.90;;;;;;4974843;28;20041;-68
2022/07/13 02:03:18;;;;;;;10.95;5.53;;;22.40;99.90;;;;;;4974967;28;20019;-68
2022/07/13 02:05:43;;;;;;;10.27;6.05;;;22.30;99.90;;;;;;4974805;28;20023;-68
2022/07/13 02:08:09;;;;;;;11.23;6.15;;;22.30;99.90;;;;;;4973408;28;20033;-68
2022/07/13 02:10:34;;;;;;;11.73;6.22;;;22.30;99.90;;;;;;4974899;28;20057;-70
2022/07/13 02:13:14;;;;;;;11.25;6.10;;;22.20;99.90;;;;;;4974569;28;20407;-68
2022/07/13 02:15:40;;;;;;;13.18;6.10;;;22.20;99.90;;;;;;4974670;28;20022;-68
2022/07/13 02:18:06;;;;;;;10.75;6.03;;;22.20;99.90;;;;;;4974473;28;20019;-69
2022/07/13 02:20:33;;;;;;;10.90;5.90;;;22.30;99.90;;;;;;4974404;28;20031;-70
2022/07/13 02:22:58;;;;;;;11.38;6.10;;;22.20;99.90;;;;;;4974623;28;20030;-69
2022/07/13 02:25:24;;;;;;;10.40;5.95;;;22.30;99.90;;;;;;4972565;28;20015;-68
2022/07/13 02:27:49;;;;;;;11.70;6.57;;;22.20;99.90;;;;;;4973773;28;20074;-68
2022/07/13 02:30:15;;;;;;;11.73;6.18;;;22.30;99.90;;;;;;4973196;28;20049;-67
2022/07/13 02:32:42;;;;;;;10.32;6.45;;;22.30;99.90;;;;;;4973130;28;20046;-68
2022/07/13 02:35:09;;;;;;;14.35;6.72;;;22.30;99.90;;;;;;4974460;28;20022;-67
2022/07/13 02:37:35;;;;;;;11.20;6.05;;;22.20;99.90;;;;;;4974206;28;20034;-67
2022/07/13 02:40:01;;;;;;;12.73;5.88;;;22.20;99.90;;;;;;4974287;28;20031;-66
2022/07/13 02:42:26;;;;;;;10.60;6.20;;;22.20;99.90;;;;;;4973888;28;20023;-68
2022/07/13 02:44:52;;;;;;;11.35;6.07;;;22.20;99.90;;;;;;4973952;28;20495;-67
2022/07/13 02:47:19;;;;;;;9.32;6.20;;;22.20;99.90;;;;;;4974027;28;20078;-67
2022/07/13 02:49:45;;;;;;;10.65;6.40;;;22.20;99.90;;;;;;4973613;28;20078;-68
2022/07/13 02:52:11;;;;;;;13.13;6.20;;;22.10;99.90;;;;;;4973529;28;20022;-66
2022/07/13 02:54:36;;;;;;;9.98;5.57;;;22.10;99.90;;;;;;4973633;28;20346;-67
2022/07/13 02:57:02;;;;;;;9.88;5.88;;;22.10;99.90;;;;;;4972552;28;20421;-67
2022/07/13 02:59:33;;;;;;;12.68;6.18;;;22.10;99.90;;;;;;4973480;28;20022;-68
2022/07/13 03:01:58;;;;;;;12.10;6.57;;;22.10;99.90;;;;;;4973750;28;20564;-68
2022/07/13 03:04:24;;;;;;;11.10;6.10;;;22.10;99.90;;;;;;4973964;28;20113;-68
2022/07/13 03:06:49;;;;;;;11.00;6.38;;;22.10;99.90;;;;;;4973510;28;20397;-68
2022/07/13 03:09:15;;;;;;;11.57;5.97;;;22.10;99.90;;;;;;4972339;28;20030;-68
2022/07/13 03:11:40;;;;;;;10.63;6.32;;;22.10;99.90;;;;;;4973341;28;20388;-67
2022/07/13 03:14:06;;;;;;;11.68;6.07;;;22.00;99.90;;;;;;4973813;28;20138;-67
2022/07/13 03:16:32;;;;;;;11.80;6.47;;;22.10;99.90;;;;;;4973591;28;20038;-68
2022/07/13 03:18:59;;;;;;;10.90;6.30;;;22.10;99.90;;;;;;4973602;28;20461;-67
2022/07/13 03:21:24;;;;;;;11.60;6.80;;;22.10;99.90;;;;;;4973696;28;20065;-66
2022/07/13 03:23:50;;;;;;;11.18;6.30;;;22.20;99.90;;;;;;4973327;28;20062;-68
2022/07/13 03:26:16;;;;;;;12.07;6.80;;;22.20;99.90;;;;;;4973363;28;20381;-68
2022/07/13 03:28:42;;;;;;;12.18;6.80;;;22.20;99.90;;;;;;4973338;28;20026;-69
2022/07/13 03:31:07;;;;;;;11.63;6.80;;;22.10;99.90;;;;;;4973497;28;20026;-67
2022/07/13 03:33:33;;;;;;;14.18;7.10;;;22.10;99.90;;;;;;4973191;28;20070;-67
2022/07/13 03:35:58;;;;;;;15.82;6.70;;;22.10;99.90;;;;;;4973670;28;20030;-68
2022/07/13 03:38:24;;;;;;;9.55;5.80;;;22.00;99.90;;;;;;4972870;28;20023;-67
2022/07/13 03:40:49;;;;;;;13.98;6.10;;;22.00;99.90;;;;;;4973285;28;20074;-67
2022/07/13 03:43:15;;;;;;;10.90;5.18;;;22.00;99.90;;;;;;4971955;28;20019;-68
2022/07/13 03:45:42;;;;;;;9.15;5.43;;;22.10;99.90;;;;;;4973254;28;20095;-69
2022/07/13 03:48:07;;;;;;;9.77;4.70;;;22.00;99.90;;;;;;4973466;28;20034;-67
2022/07/13 03:50:33;;;;;;;7.97;4.30;;;22.10;99.90;;;;;;4973565;28;20022;-68
2022/07/13 03:52:59;;;;;;;8.02;4.30;;;22.10;99.90;;;;;;4972909;28;20022;-69
2022/07/13 03:55:24;;;;;;;10.25;3.92;;;22.10;99.90;;;;;;4973064;28;20097;-67
2022/07/13 03:57:50;;;;;;;8.32;4.10;;;22.10;99.90;;;;;;4973169;28;20026;-68
2022/07/13 04:00:15;;;;;;;8.00;4.00;;;22.10;99.90;;;;;;4972891;28;20082;-67
2022/07/13 04:02:41;;;;;;;8.50;3.97;;;22.20;99.90;;;;;;4973135;28;20059;-67
2022/07/13 04:05:07;;;;;;;8.23;4.07;;;22.20;99.90;;;;;;4973008;28;20432;-68
2022/07/13 04:07:33;;;;;;;7.25;3.80;;;22.20;99.90;;;;;;4971450;28;20031;-69
2022/07/13 04:09:58;;;;;;;7.53;3.85;;;22.20;99.90;;;;;;4973017;28;20471;-68
2022/07/13 04:12:24;;;;;;;8.73;4.10;;;22.20;99.90;;;;;;4973144;28;20078;-68
2022/07/13 04:14:50;;;;;;;5.57;3.55;;;22.30;99.90;;;;;;4974135;28;20026;-67
2022/07/13 04:17:16;;;;;;;5.35;3.40;;;22.30;99.90;;;;;;4977231;28;20026;-67
2022/07/13 04:19:41;;;;;;;7.55;4.00;;;22.30;99.90;;;;;;4975168;28;20035;-68
2022/07/13 04:22:07;;;;;;;8.23;3.88;;;22.30;99.90;;;;;;4972731;28;20753;-68
2022/07/13 04:24:33;;;;;;;7.82;4.10;;;22.40;99.90;;;;;;4973049;28;20027;-67
2022/07/13 04:26:59;;;;;;;6.85;3.63;;;22.40;99.90;;;;;;4973171;28;20484;-68
2022/07/13 04:29:25;;;;;;;7.30;4.20;;;22.50;99.90;;;;;;4972710;28;20027;-69
2022/07/13 04:31:50;;;;;;;10.50;4.30;;;22.50;99.90;;;;;;4972768;28;20034;-68
2022/07/13 04:34:17;;;;;;;8.43;3.80;;;22.50;99.90;;;;;;4973015;28;20034;-68
2022/07/13 04:36:43;;;;;;;8.10;4.10;;;22.50;99.90;;;;;;4972701;28;20384;-68
2022/07/13 04:39:09;;;;;;;6.25;3.90;;;22.50;99.90;;;;;;4971229;28;20476;-68
2022/07/13 04:41:35;;;;;;;6.50;3.72;;;22.50;99.90;;;;;;4972678;28;20070;-68
2022/07/13 04:44:00;;;;;;;8.05;3.78;;;22.50;99.90;;;;;;4972434;28;20058;-68
2022/07/13 04:46:27;;;;;;;6.85;4.05;;;22.50;99.90;;;;;;4972967;28;20030;-67
2022/07/13 04:48:53;;;;;;;7.38;4.35;;;22.50;99.90;;;;;;4972701;28;20011;-68
2022/07/13 04:51:18;;;;;;;7.75;4.10;;;22.50;99.90;;;;;;4975912;28;20057;-67
2022/07/13 04:53:44;;;;;;;8.43;4.10;;;22.50;99.90;;;;;;4975750;28;20041;-68
2022/07/13 04:56:10;;;;;;;9.13;4.28;;;22.50;99.90;;;;;;4976039;28;20428;-68
2022/07/13 04:58:35;;;;;;;6.10;4.13;;;22.40;99.90;;;;;;4975596;28;20103;-69
2022/07/13 05:01:01;;;;;;;6.63;3.58;;;22.40;99.90;;;;;;4975026;28;20042;-67
2022/07/13 05:03:27;;;;;;;5.50;3.65;;;22.40;99.90;;;;;;4975178;28;20018;-68
2022/07/13 05:05:53;;;;;;;5.50;3.60;;;22.40;99.90;;;;;;4975797;28;20078;-67
2022/07/13 05:08:18;;;;;;;8.68;4.32;;;22.40;99.90;;;;;;4975473;28;20023;-70
2022/07/13 05:10:45;;;;;;;10.38;4.25;;;22.40;99.90;;;;;;4975752;28;20023;-67
2022/07/13 05:13:10;;;;;;;9.05;3.85;;;22.40;99.90;;;;;;4976097;28;20014;-67
2022/07/13 05:15:36;;;;;;;8.10;3.80;;;22.50;99.90;;;;;;4975751;28;20033;-70
2022/07/13 05:18:02;;;;;;;7.57;4.38;;;22.50;99.90;;;;;;4974133;28;20023;-67
2022/07/13 05:20:27;;;;;;;6.20;3.92;;;22.50;99.90;;;;;;4975123;28;20041;-68
2022/07/13 05:22:53;;;;;;;8.90;3.80;;;22.60;99.90;;;;;;4975357;28;20071;-68
2022/07/13 05:25:20;;;;;;;5.68;3.70;;;22.60;99.90;;;;;;4975084;28;20091;-68
2022/07/13 05:27:46;;;;;;;8.43;3.70;;;22.60;99.90;;;;;;4973166;28;20038;-69
2022/07/13 05:30:12;;;;;;;5.70;3.50;;;22.70;99.90;;;;;;4975351;28;20483;-67
2022/07/13 05:32:37;;;;;;;5.97;3.28;;;22.70;99.90;;;;;;4974499;28;20102;-67
2022/07/13 05:35:03;;;;;;;5.75;3.50;;;22.80;99.90;;;;;;4975590;28;20018;-69
2022/07/13 05:37:29;;;;;;;6.43;3.50;;;22.90;99.90;;;;;;4974844;28;20085;-68
2022/07/13 05:39:54;;;;;;;5.68;3.53;;;23.00;99.90;;;;;;4973620;28;20376;-69
2022/07/13 05:42:20;;;;;;;4.40;3.63;;;23.00;99.90;;;;;;4974820;28;20094;-69
2022/07/13 05:44:45;;;;;;;4.90;3.33;;;23.10;99.90;;;;;;4974959;28;20039;-68
2022/07/13 05:47:11;;;;;;;9.65;3.58;;;23.10;99.90;;;;;;4975000;28;20023;-67
2022/07/13 05:49:37;;;;;;;7.50;3.50;;;23.20;99.90;;;;;;4974762;28;20019;-67
2022/07/13 05:52:03;;;;;;;5.88;3.17;;;23.40;99.90;;;;;;4974877;28;20034;-69
2022/07/13 05:54:30;;;;;;;5.63;3.55;;;23.50;99.90;;;;;;4974848;28;20705;-68
2022/07/13 05:56:56;;;;;;;7.72;3.67;;;23.70;99.90;;;;;;4974401;28;20023;-67
2022/07/13 05:59:21;;;;;;;8.35;3.95;;;23.80;99.90;;;;;;4974351;28;20429;-67
2022/07/13 06:01:47;;;;;;;4.70;3.35;;;24.10;99.90;;;;;;4974441;28;20094;-67
2022/07/13 06:04:12;;;;;;;9.07;3.58;;;24.20;99.90;;;;;;4973119;28;20014;-67
2022/07/13 06:06:38;;;;;;;6.10;3.42;;;24.50;99.90;;;;;;4974594;28;20023;-66
2022/07/13 06:09:04;;;;;;;9.43;3.60;;;25.00;99.90;;;;;;4974589;28;20018;-67
2022/07/13 06:11:30;;;;;;;9.95;3.60;;;25.90;99.90;;;;;;4974179;28;20085;-66
2022/07/13 06:13:56;;;;;;;8.63;3.53;;;26.70;99.90;;;;;;4974463;28;20034;-67
2022/07/13 06:16:21;;;;;;;8.40;3.70;;;27.50;99.60;;;;;;4974448;28;20045;-69
2022/07/13 06:18:47;;;;;;;6.50;3.60;;;28.30;98.60;;;;;;4972912;28;20372;-68
2022/07/13 06:21:12;;;;;;;8.30;3.42;;;29.00;97.40;;;;;;4974189;28;20384;-68
2022/07/13 06:23:38;;;;;;;10.20;3.72;;;29.70;96.30;;;;;;4974176;28;20077;-67
2022/07/13 06:26:03;;;;;;;6.95;2.80;;;30.10;95.50;;;;;;4974231;28;20027;-68
2022/07/13 06:28:29;;;;;;;8.18;3.72;;;30.60;94.80;;;;;;4974750;28;20081;-68
2022/07/13 06:30:54;;;;;;;8.23;3.53;;;31.10;94.00;;;;;;4974347;28;20449;-67
2022/07/13 06:33:20;;;;;;;6.63;3.20;;;31.30;93.10;;;;;;4974346;28;20042;-66
2022/07/13 06:35:46;;;;;;;7.72;2.90;;;31.50;92.60;;;;;;4973131;28;20034;-68
2022/07/13 06:38:12;;;;;;;9.48;3.20;;;31.70;92.10;;;;;;4974618;28;20104;-68
2022/07/13 06:40:37;;;;;;;8.38;3.40;;;32.00;91.80;;;;;;4974750;28;20034;-68
2022/07/13 06:43:03;;;;;;;9.82;3.50;;;32.30;91.30;;;;;;4974558;28;20474;-69
2022/07/13 06:45:29;;;;;;;5.28;3.38;;;32.60;90.60;;;;;;4974148;28;20181;-69
2022/07/13 06:47:54;;;;;;;8.18;3.22;;;32.70;90.20;;;;;;4973781;28;20019;-69
2022/07/13 06:50:20;;;;;;;9.05;3.58;;;33.00;89.80;;;;;;4972928;28;20397;-70
2022/07/13 06:52:47;;;;;;;5.47;3.28;;;33.20;88.90;;;;;;4974007;28;20030;-70
2022/07/13 06:55:14;;;;;;;9.45;3.53;;;33.30;88.50;;;;;;4974500;28;20026;-69
2022/07/13 06:57:40;;;;;;;8.02;3.15;;;33.50;87.80;;;;;;4973858;28;20033;-68
2022/07/13 07:00:08;;;;;;;8.70;3.30;;;33.80;87.50;;;;;;4974308;28;20031;-68
2022/07/13 07:02:35;;;;;;;8.00;3.13;;;34.20;86.30;;;;;;4974184;28;20508;-67
2022/07/13 07:05:02;;;;;;;8.40;3.22;;;34.60;84.70;;;;;;4973677;28;20035;-69
2022/07/13 07:07:28;;;;;;;8.35;3.10;;;34.90;84.40;;;;;;4974004;28;20019;-68
2022/07/13 07:09:53;;;;;;;5.70;3.03;;;35.20;83.30;;;;;;4974007;28;20360;-70
2022/07/13 07:12:19;;;;;;;10.90;3.17;;;35.60;82.20;;;;;;4973875;28;20349;-69
2022/07/13 07:14:44;;;;;;;6.53;2.85;;;35.70;82.10;;;;;;4972627;28;20525;-67
2022/07/13 07:17:10;;;;;;;7.20;2.88;;;35.60;81.30;;;;;;4972857;28;20347;-67
2022/07/13 07:19:36;;;;;;;7.78;3.25;;;35.50;81.10;;;;;;4971473;28;20034;-69
2022/07/13 07:22:01;;;;;;;6.10;3.45;;;35.50;81.10;;;;;;4972049;28;20050;-69
2022/07/13 07:24:27;;;;;;;9.13;3.70;;;35.70;80.60;;;;;;4972436;28;20110;-70
2022/07/13 07:26:52;;;;;;;6.80;3.50;;;35.70;80.30;;;;;;4973874;28;20026;-67
2022/07/13 07:29:18;;;;;;;5.07;3.33;;;35.50;80.30;;;;;;4973793;28;20019;-67
2022/07/13 07:31:44;;;;;;;6.25;3.45;;;35.20;80.80;;;;;;4973674;28;20053;-67
2022/07/13 07:34:09;;;;;;;6.38;3.50;;;34.70;81.40;;;;;;4972735;28;20027;-66
2022/07/13 07:36:35;;;;;;;6.90;3.70;;;34.10;82.40;;;;;;4974582;28;20023;-66
2022/07/13 07:39:00;;;;;;;8.27;3.50;;;33.40;83.40;;;;;;4975484;28;20110;-67
2022/07/13 07:41:26;;;;;;;5.43;3.28;;;33.10;84.70;;;;;;4973593;28;20039;-66
2022/07/13 07:43:52;;;;;;;6.63;3.42;;;33.00;85.60;;;;;;4971334;28;20093;-68
2022/07/13 07:46:17;;;;;;;8.40;3.65;;;33.30;84.60;;;;;;4973241;28;20059;-68
2022/07/13 07:48:43;;;;;;;4.25;2.97;;;33.60;84.00;;;;;;4973608;28;20022;-70
2022/07/13 07:51:08;;;;;;;8.82;3.42;;;33.90;83.50;;;;;;4973253;28;20473;-68
2022/07/13 07:53:34;;;;;;;10.73;3.53;;;34.10;83.10;;;;;;4973255;28;20436;-66
2022/07/13 07:56:00;;;;;;;10.18;3.58;;;34.20;82.90;;;;;;4972784;28;20433;-66
2022/07/13 07:58:25;;;;;;;6.03;3.28;;;34.10;82.90;;;;;;4973505;28;20392;-68
2022/07/13 08:00:51;;;;;;;9.57;3.47;;;33.80;83.20;;;;;;4973387;28;20030;-69
2022/07/13 08:03:16;;;;;;;8.20;3.30;;;33.30;84.00;;;;;;4973393;28;20439;-66
2022/07/13 08:05:45;;;;;;;8.52;3.42;;;32.80;84.80;;;;;;4973782;28;20031;-67
2022/07/13 08:08:10;;;;;;;7.85;3.33;;;32.60;85.80;;;;;;4973241;28;20015;-66
2022/07/13 08:10:36;;;;;;;7.95;3.55;;;32.30;86.20;;;;;;4971712;28;20029;-67
2022/07/13 08:13:03;;;;;;;10.57;3.35;;;32.00;87.10;;;;;;4973805;28;20341;-67
2022/07/13 08:15:29;;;;;;;8.23;3.20;;;31.90;87.40;;;;;;4972014;28;20065;-66
2022/07/13 08:17:55;;;;;;;8.45;3.40;;;31.70;87.20;;;;;;4971744;28;20101;-67
2022/07/13 08:20:21;;;;;;;5.80;3.35;;;31.70;88.10;;;;;;4971904;28;20417;-67
2022/07/13 08:22:46;;;;;;;7.20;3.47;;;31.90;87.70;;;;;;4973443;28;20027;-66
2022/07/13 08:25:12;;;;;;;12.15;4.50;;;32.00;87.00;;;;;;4974744;28;20109;-67
2022/07/13 08:27:38;;;;;;;8.32;3.30;;;32.20;87.20;;;;;;4977011;28;20030;-67
2022/07/13 08:30:04;;;;;;;8.15;3.78;;;32.80;86.10;;;;;;4976656;28;20030;-66
2022/07/13 08:32:29;;;;;;;9.93;3.65;;;33.50;85.10;;;;;;4976084;28;20022;-69
2022/07/13 08:40:24;;;;;;;7.13;3.22;;;36.10;80.00;;;;;;4976981;28;20113;-68
2022/07/13 08:42:49;;;;;;;8.00;3.00;;;36.80;78.30;;;;;;4976596;28;20023;-67
2022/07/13 08:45:15;;;;;;;6.40;2.80;;;37.40;76.50;;;;;;4976800;28;20389;-67
2022/07/13 08:47:45;;;;;;;7.38;3.33;;;37.90;74.40;;;;;;4976883;28;20023;-68
2022/07/13 08:50:11;;;;;;;5.43;3.22;;;38.00;74.10;;;;;;4976390;28;20065;-67
2022/07/13 08:52:39;;;;;;;11.13;3.25;;;38.00;73.90;;;;;;4976641;28;20067;-67
2022/07/13 08:55:06;;;;;;;9.07;3.78;;;38.10;73.70;;;;;;4976342;28;20027;-67
2022/07/13 08:57:36;;;;;;;10.65;3.83;;;38.20;73.20;;;;;;4976576;28;20022;-68
2022/07/13 09:00:08;;;;;;;7.93;3.15;;;38.10;72.80;;;;;;4976283;28;20014;-67
2022/07/13 09:02:34;;;;;;;8.73;3.45;;;38.20;72.60;;;;;;4975475;28;20748;-67
2022/07/13 09:05:04;;;;;;;12.73;4.00;;;38.40;72.10;;;;;;4976939;28;20030;-69
2022/07/13 09:07:30;;;;;;;6.65;3.10;;;38.50;71.90;;;;;;4975205;28;20023;-68
2022/07/13 09:09:56;;;;;;;7.53;3.00;;;38.80;71.10;;;;;;4976529;28;20123;-67
2022/07/13 09:12:27;;;;;;;7.00;3.33;;;39.00;70.60;;;;;;4976341;28;20026;-67
2022/07/13 09:14:54;;;;;;;7.45;3.38;;;39.10;70.10;;;;;;4975853;28;20031;-70
2022/07/13 09:17:33;;;;;;;9.07;3.60;;;39.10;69.50;;;;;;4976252;28;20023;-68
2022/07/13 09:20:14;;;;;;;10.80;4.63;;;39.10;68.10;;;;;;4976375;28;20027;-67
2022/07/13 09:22:51;;;;;;;11.70;4.20;;;39.10;67.60;;;;;;4976483;28;20585;-69
2022/07/13 09:25:33;;;;;;;5.90;3.03;;;39.10;67.80;;;;;;4975951;28;20019;-68
2022/07/13 09:28:10;;;;;;;6.03;2.95;;;38.80;68.00;;;;;;4976142;28;20361;-68
2022/07/13 09:30:43;;;;;;;4.03;2.88;;;38.50;68.20;;;;;;4976064;28;20023;-69
2022/07/13 09:33:09;;;;;;;6.65;3.10;;;38.40;68.10;;;;;;4976046;28;20070;-69
2022/07/13 09:35:51;;;;;;;6.60;2.92;;;38.20;68.20;;;;;;4975406;28;20022;-68
2022/07/13 09:38:28;;;;;;;10.10;3.45;;;37.70;68.60;;;;;;4976011;28;20065;-69
2022/07/13 09:40:53;;;;;;;4.38;2.67;;;37.20;69.30;;;;;;4975640;28;20027;-70
2022/07/13 09:46:10;;;;;;;6.68;2.85;;;36.50;68.60;;;;;;4975540;28;20109;-67
2022/07/13 09:48:39;;;;;;;8.10;3.80;;;36.00;69.80;;;;;;4974364;28;20373;-68
2022/07/13 09:51:05;;;;;;;7.68;3.25;;;35.70;70.40;;;;;;4975606;28;20030;-67
2022/07/13 09:53:33;;;;;;;9.52;4.20;;;35.30;70.70;;;;;;4974443;28;20368;-68
2022/07/13 09:56:02;;;;;;;6.68;3.10;;;35.00;70.90;;;;;;4974278;28;20055;-69
2022/07/13 09:58:30;;;;;;;6.18;3.00;;;34.70;71.30;;;;;;4975522;28;20026;-67
2022/07/13 10:00:58;;;;;;;9.98;3.10;;;34.30;71.90;;;;;;4975428;28;20034;-68
2022/07/13 10:03:25;;;;;;;5.85;3.00;;;33.90;73.30;;;;;;4975740;28;20027;-68
2022/07/13 10:05:52;;;;;;;6.55;2.88;;;33.60;73.40;;;;;;4975334;28;20077;-68
2022/07/13 10:08:18;;;;;;;6.78;3.15;;;33.40;74.10;;;;;;4974944;28;20482;-67
2022/07/13 10:10:46;;;;;;;10.38;2.95;;;33.20;74.40;;;;;;4975156;28;20023;-66
2022/07/13 10:13:12;;;;;;;6.00;2.83;;;33.00;74.70;;;;;;4975229;28;20023;-68
2022/07/13 10:15:39;;;;;;;7.43;2.90;;;32.90;74.20;;;;;;4975068;28;20026;-67
2022/07/13 10:18:08;;;;;;;6.82;2.67;;;32.80;73.90;;;;;;4975301;28;20081;-66
2022/07/13 10:20:37;;;;;;;7.03;3.33;;;32.80;73.70;;;;;;4974988;28;20458;-68
2022/07/13 10:23:02;;;;;;;5.07;2.45;;;32.80;74.00;;;;;;4974685;28;20041;-69
2022/07/13 10:25:45;;;;;;;14.18;4.78;;;33.20;74.00;;;;;;4972836;28;20421;-68
2022/07/13 10:28:14;;;;;;;6.75;2.53;;;34.30;72.20;;;;;;4974917;28;20377;-68
2022/07/13 10:30:39;;;;;;;4.38;2.15;;;35.90;70.70;;;;;;4974982;28;20027;-67
2022/07/13 10:33:22;;;;;;;5.22;2.33;;;37.30;68.30;;;;;;4974721;28;20029;-67
2022/07/13 10:35:49;;;;;;;3.13;2.10;;;38.40;66.40;;;;;;4973550;28;20029;-71
2022/07/13 10:38:20;;;;;;;4.20;2.10;;;38.60;65.10;;;;;;4974376;28;20027;-68
2022/07/13 10:40:46;;;;;;;3.65;2.05;;;38.50;63.60;;;;;;4973953;28;20433;-67
2022/07/13 10:43:13;;;;;;;3.10;1.73;;;38.40;62.80;;;;;;4973498;28;20027;-68
2022/07/13 10:45:39;;;;;;;5.43;2.10;;;38.20;62.90;;;;;;4974254;28;20089;-71
2022/07/13 10:48:13;;;;;;;3.90;2.08;;;37.90;61.80;;;;;;4973857;28;20502;-67
2022/07/13 10:50:54;;;;;;;3.50;1.48;;;37.70;61.20;;;;;;4973852;28;20046;-68
2022/07/13 10:53:21;;;;;;;4.82;1.80;;;37.50;60.20;;;;;;4973467;28;20034;-66
2022/07/13 10:55:51;;;;;;;7.80;3.25;;;37.50;60.30;;;;;;4976663;28;20079;-66
2022/07/13 10:58:35;;;;;;;3.15;1.90;;;37.90;59.90;;;;;;4975685;28;20031;-69
2022/07/13 11:01:21;;;;;;;4.72;2.30;;;38.60;59.40;;;;;;4974064;28;20041;-68
2022/07/13 11:03:48;;;;;;;3.75;1.92;;;39.20;59.00;;;;;;4974231;28;20027;-70
2022/07/13 11:06:20;;;;;;;3.65;2.05;;;39.80;57.00;;;;;;4973776;28;20122;-70
2022/07/13 11:09:06;;;;;;;1.85;1.60;;;40.30;56.20;;;;;;4972586;28;20023;-68
2022/07/13 11:11:32;;;;;;;2.97;1.63;;;40.70;55.10;;;;;;4974396;28;20027;-69
2022/07/13 11:13:58;;;;;;;6.45;2.60;;;41.00;54.40;;;;;;4972597;28;20022;-69
2022/07/13 11:16:47;;;;;;;6.57;2.40;;;41.20;53.30;;;;;;4972415;28;20034;-69
2022/07/13 11:19:14;;;;;;;2.33;1.90;;;41.30;53.90;;;;;;4973993;28;20023;-67
2022/07/13 11:22:10;;;;;;;2.17;1.90;;;41.60;54.20;;;;;;4973638;28;20037;-69
2022/07/13 11:27:48;;;;;;;6.07;2.40;;;42.30;53.30;;;;;;4974015;28;20033;-68
2022/07/13 11:30:23;;;;;;;4.25;1.88;;;42.70;53.50;;;;;;4974085;28;20397;-67
2022/07/13 11:32:49;;;;;;;3.30;2.05;;;42.80;52.60;;;;;;4973660;28;20026;-69
2022/07/13 11:35:16;;;;;;;5.05;1.95;;;42.80;52.70;;;;;;4974156;28;20039;-68
2022/07/13 11:37:42;;;;;;;5.07;2.45;;;42.70;52.40;;;;;;4972636;28;20029;-70
2022/07/13 11:40:08;;;;;;;5.45;2.15;;;42.70;51.70;;;;;;4972474;28;20030;-69
2022/07/13 11:42:34;;;;;;;6.28;2.30;;;42.70;51.30;;;;;;4972742;28;20130;-69
2022/07/13 11:44:59;;;;;;;3.03;2.00;;;42.90;51.60;;;;;;4972636;28;20125;-68
2022/07/13 11:47:27;;;;;;;3.97;2.25;;;43.20;51.50;;;;;;4972534;28;20158;-68
2022/07/13 11:49:54;;;;;;;7.63;2.80;;;43.00;50.90;;;;;;4972774;28;20022;-68
2022/07/13 11:52:38;;;;;;;7.55;2.50;;;42.30;51.30;;;;;;4973080;28;20042;-70
2022/07/13 11:55:05;;;;;;;4.78;2.25;;;42.10;50.90;;;;;;4973819;28;20030;-68
2022/07/13 11:57:33;;;;;;;6.53;1.83;;;42.20;50.70;;;;;;4972354;28;20358;-67
2022/07/13 12:00:05;;;;;;;7.82;2.35;;;42.30;50.80;;;;;;4975584;28;20030;-68
2022/07/13 12:02:30;;;;;;;5.45;2.20;;;42.30;50.70;;;;;;4976415;28;20019;-69
2022/07/13 12:04:56;;;;;;;5.55;3.05;;;42.20;50.80;;;;;;4976242;28;20057;-69
2022/07/13 12:07:28;;;;;;;6.82;2.92;;;41.70;51.20;;;;;;4977240;28;20105;-67
2022/07/13 12:09:59;;;;;;;8.65;2.90;;;41.50;52.60;;;;;;4977228;28;20418;-70
2022/07/13 12:12:29;;;;;;;;;;;41.50;53.20;;;;;;4977745;28;20097;-69
2022/07/13 12:14:56;;;;;;;6.28;3.05;;;41.60;52.90;;;;;;4977444;28;19902;-70
2022/07/13 12:17:24;;;;;;;7.05;3.50;;;41.50;53.60;;;;;;4975437;28;20034;-68
2022/07/13 12:19:50;;;;;;;9.07;3.40;;;40.90;54.10;;;;;;4977149;28;20026;-70
2022/07/13 12:22:21;;;;;;;9.27;3.50;;;39.70;55.00;;;;;;4974055;28;20034;-66
2022/07/13 12:24:47;;;;;;;10.88;3.42;;;38.60;56.00;;;;;;4977155;28;20106;-67
2022/07/13 12:27:26;;;;;;;11.80;4.32;;;37.70;57.80;;;;;;4977118;28;20170;-66
2022/07/13 12:30:08;;;;;;;8.13;3.80;;;37.00;58.90;;;;;;4975687;28;20022;-68
2022/07/13 12:33:09;;;;;;;10.60;3.90;;;36.60;59.80;;;;;;4976950;28;20050;-68
2022/07/13 12:35:40;;;;;;;10.88;4.47;;;36.10;60.20;;;;;;4976868;28;20019;-67
2022/07/13 12:38:12;;;;;;;10.73;4.67;;;35.60;61.10;;;;;;4977083;28;20022;-67
2022/07/13 12:41:06;;;;;;;12.30;4.22;;;35.00;62.60;;;;;;4977051;28;20090;-67
2022/07/13 12:43:32;;;;;;;15.68;4.82;;;34.30;63.50;;;;;;4977077;28;20102;-67
2022/07/13 12:46:02;;;;;;;8.50;4.10;;;33.70;65.20;;;;;;4976783;28;20122;-67
2022/07/13 12:48:35;;;;;;;10.90;4.10;;;33.20;66.90;;;;;;4976871;28;20027;-70
2022/07/13 12:51:05;;;;;;;12.25;3.65;;;33.10;67.60;;;;;;4975843;28;20736;-67
2022/07/13 12:53:50;;;;;;;9.85;4.38;;;33.30;67.80;;;;;;4976430;28;20019;-67
2022/07/13 12:56:17;;;;;;;11.18;4.22;;;33.60;67.50;;;;;;4976589;28;20030;-68